createdAt,value
2018-09-12T00:01:34.606Z,11.20
2018-09-12T00:04:02.888Z,7.93
2018-09-12T00:06:31.843Z,10.40
2018-09-12T00:09:00.365Z,5.83
2018-09-12T00:11:28.778Z,6.17
2018-09-12T00:13:57.268Z,9.10
2018-09-12T00:16:25.918Z,5.23
2018-09-12T00:18:54.202Z,10.07
2018-09-12T00:21:22.476Z,5.53
2018-09-12T00:23:50.915Z,6.93
2018-09-12T00:26:19.233Z,3.83
2018-09-12T00:28:48.497Z,5.90
2018-09-12T00:31:16.784Z,7.87
2018-09-12T00:33:45.451Z,10.60
2018-09-12T00:36:15.202Z,4.63
2018-09-12T00:38:44.345Z,6.90
2018-09-12T00:41:13.158Z,5.00
2018-09-12T00:43:41.409Z,6.80
2018-09-12T00:46:09.688Z,5.83
2018-09-12T00:48:37.934Z,4.30
2018-09-12T00:51:06.434Z,11.73
2018-09-12T00:53:34.936Z,5.93
2018-09-12T00:56:03.481Z,6.07
2018-09-12T00:58:31.802Z,5.67
2018-09-12T01:01:00.107Z,6.83
2018-09-12T01:03:28.355Z,6.50
2018-09-12T01:05:56.845Z,4.73
2018-09-12T01:08:25.399Z,9.10
2018-09-12T01:10:53.740Z,7.93
2018-09-12T01:13:22.218Z,14.33
2018-09-12T01:15:50.589Z,6.70
2018-09-12T01:18:20.354Z,5.13
2018-09-12T01:20:50.051Z,7.70
2018-09-12T01:23:18.644Z,12.33
2018-09-12T01:25:47.327Z,4.47
2018-09-12T01:28:15.625Z,7.97
2018-09-12T01:30:44.227Z,4.33
2018-09-12T01:33:12.498Z,5.93
2018-09-12T01:35:40.801Z,5.90
2018-09-12T01:38:09.050Z,7.53
2018-09-12T01:40:38.645Z,6.13
2018-09-12T01:43:06.934Z,5.60
2018-09-12T01:45:37.660Z,4.27
2018-09-12T01:48:05.912Z,8.63
2018-09-12T01:50:34.194Z,6.20
2018-09-12T01:53:02.758Z,6.00
2018-09-12T01:55:31.049Z,8.60
2018-09-12T01:57:59.463Z,2.77
2018-09-12T02:00:33.181Z,11.70
2018-09-12T02:03:01.436Z,8.33
2018-09-12T02:05:29.844Z,5.10
2018-09-12T02:07:58.388Z,6.33
2018-09-12T02:10:26.680Z,8.83
2018-09-12T02:12:55.170Z,4.53
2018-09-12T02:15:23.698Z,5.87
2018-09-12T02:17:51.993Z,9.60
2018-09-12T02:20:20.321Z,4.87
2018-09-12T02:22:48.611Z,6.17
2018-09-12T02:25:17.075Z,5.77
2018-09-12T02:27:46.359Z,5.53
2018-09-12T02:30:14.663Z,6.50
2018-09-12T02:32:43.057Z,10.23
2018-09-12T02:35:18.046Z,7.50
2018-09-12T02:37:46.288Z,9.30
2018-09-12T02:40:16.417Z,12.83
2018-09-12T02:42:45.816Z,7.07
2018-09-12T02:45:14.113Z,7.93
2018-09-12T02:47:42.581Z,8.63
2018-09-12T02:50:12.684Z,5.83
2018-09-12T02:52:41.490Z,6.97
2018-09-12T02:55:11.570Z,9.07
2018-09-12T02:57:39.822Z,5.80
2018-09-12T03:00:08.649Z,6.03
2018-09-12T03:02:37.016Z,8.57
2018-09-12T03:05:05.623Z,5.00
2018-09-12T03:07:33.973Z,12.43
2018-09-12T03:10:02.416Z,7.27
2018-09-12T03:12:30.742Z,5.80
2018-09-12T03:14:58.982Z,7.27
2018-09-12T03:17:27.278Z,8.17
2018-09-12T03:19:55.520Z,17.60
2018-09-12T03:22:23.947Z,7.10
2018-09-12T03:24:52.264Z,7.27
2018-09-12T03:27:20.592Z,8.30
2018-09-12T03:29:48.873Z,7.17
2018-09-12T03:32:17.525Z,7.60
2018-09-12T03:34:45.963Z,12.40
2018-09-12T03:37:14.271Z,12.63
2018-09-12T03:39:42.998Z,11.33
2018-09-12T03:42:27.849Z,24.63
2018-09-12T03:44:56.502Z,13.23
2018-09-12T03:47:24.993Z,10.57
2018-09-12T03:49:53.257Z,9.60
2018-09-12T03:52:23.096Z,11.53
2018-09-12T03:54:51.532Z,12.40
2018-09-12T03:57:19.832Z,11.63
2018-09-12T03:59:48.571Z,17.60
2018-09-12T04:05:13.463Z,14.77
2018-09-12T04:07:42.711Z,9.40
2018-09-12T04:10:11.921Z,5.80
2018-09-12T04:12:41.103Z,10.47
2018-09-12T04:15:10.330Z,9.53
2018-09-12T04:17:39.594Z,10.20
2018-09-12T04:20:08.819Z,7.47
2018-09-12T04:22:37.984Z,10.40
2018-09-12T04:25:07.730Z,13.63
2018-09-12T04:27:36.882Z,14.40
2018-09-12T04:30:06.535Z,9.27
2018-09-12T04:32:35.912Z,17.83
2018-09-12T04:35:04.858Z,10.07
2018-09-12T04:37:34.089Z,13.20
2018-09-12T04:40:03.420Z,12.77
2018-09-12T04:42:32.636Z,18.93
2018-09-12T04:45:01.796Z,10.63
2018-09-12T04:47:31.106Z,14.70
2018-09-12T04:50:00.312Z,18.60
2018-09-12T04:52:29.514Z,9.57
2018-09-12T04:54:58.986Z,17.23
2018-09-12T04:57:28.318Z,16.60
2018-09-12T04:59:57.503Z,15.27
2018-09-12T05:02:26.714Z,9.83
2018-09-12T05:04:55.916Z,14.80
2018-09-12T05:07:25.209Z,24.77
2018-09-12T05:09:54.387Z,13.40
2018-09-12T05:12:23.630Z,24.37
2018-09-12T05:14:52.790Z,118.23
2018-09-12T05:17:22.002Z,167.80
2018-09-12T05:19:51.082Z,73.47
2018-09-12T05:22:20.399Z,63.40
2018-09-12T05:24:50.138Z,85.33
2018-09-12T05:27:19.426Z,49.73
2018-09-12T05:29:48.870Z,87.03
2018-09-12T05:32:18.011Z,91.83
2018-09-12T05:34:47.080Z,70.47
2018-09-12T05:37:16.408Z,42.17
2018-09-12T05:39:45.674Z,61.73
2018-09-12T05:42:14.930Z,23.70
2018-09-12T05:44:44.374Z,14.30
2018-09-12T05:47:13.614Z,12.30
2018-09-12T05:49:42.768Z,8.53
2018-09-12T05:52:12.282Z,17.93
2018-09-12T05:54:41.470Z,13.10
2018-09-12T05:57:10.734Z,11.47
2018-09-12T06:00:43.062Z,9.50
2018-09-12T06:03:13.010Z,8.50
2018-09-12T06:05:42.067Z,16.00
2018-09-12T06:08:11.554Z,8.63
2018-09-12T06:10:40.811Z,10.83
2018-09-12T06:13:09.990Z,5.07
2018-09-12T06:15:39.234Z,16.30
2018-09-12T06:18:08.574Z,11.53
2018-09-12T06:20:37.762Z,8.80
2018-09-12T06:23:06.933Z,13.67
2018-09-12T06:25:36.581Z,13.00
2018-09-12T06:28:05.749Z,13.73
2018-09-12T06:30:35.092Z,8.67
2018-09-12T06:33:04.183Z,7.80
2018-09-12T06:35:33.395Z,12.20
2018-09-12T06:38:02.573Z,11.40
2018-09-12T06:40:32.084Z,8.27
2018-09-12T06:43:01.273Z,5.60
2018-09-12T06:45:30.392Z,9.40
2018-09-12T06:47:59.767Z,11.93
2018-09-12T06:50:28.983Z,6.33
2018-09-12T06:52:58.162Z,12.43
2018-09-12T06:55:27.406Z,8.47
2018-09-12T06:57:56.467Z,16.63
2018-09-12T07:00:25.869Z,6.53
2018-09-12T07:02:55.140Z,13.87
2018-09-12T07:05:24.379Z,115.37
2018-09-12T07:07:53.644Z,13.97
2018-09-12T07:10:23.162Z,12.53
2018-09-12T07:12:52.114Z,5.40
2018-09-12T07:15:21.263Z,3.60
2018-09-12T07:17:50.455Z,5.87
2018-09-12T07:20:19.675Z,8.80
2018-09-12T07:22:48.922Z,6.50
2018-09-12T07:25:18.176Z,10.40
2018-09-12T07:27:47.326Z,12.53
2018-09-12T07:30:16.353Z,12.30
2018-09-12T07:32:45.510Z,6.57
2018-09-12T07:35:14.653Z,8.00
2018-09-12T07:37:43.951Z,5.30
2018-09-12T07:40:13.140Z,5.50
2018-09-12T07:42:42.299Z,2.77
2018-09-12T07:45:11.820Z,7.80
2018-09-12T07:47:41.027Z,6.40
2018-09-12T07:50:10.034Z,4.93
2018-09-12T07:52:39.202Z,5.33
2018-09-12T07:55:08.645Z,4.47
2018-09-12T07:57:37.799Z,6.53
2018-09-12T08:00:07.390Z,7.97
2018-09-12T08:02:36.728Z,12.83
2018-09-12T08:05:06.134Z,5.20
2018-09-12T08:07:35.230Z,5.17
2018-09-12T08:10:04.241Z,5.10
2018-09-12T08:12:33.285Z,4.43
2018-09-12T08:15:02.421Z,5.33
2018-09-12T08:17:31.742Z,5.17
2018-09-12T08:20:00.770Z,4.17
2018-09-12T08:22:29.946Z,5.43
2018-09-12T08:24:59.223Z,10.80
2018-09-12T08:27:28.430Z,4.80
2018-09-12T08:29:57.590Z,6.00
2018-09-12T08:32:26.922Z,11.07
2018-09-12T08:34:56.386Z,6.00
2018-09-12T08:37:26.088Z,2.90
2018-09-12T08:39:55.388Z,7.20
2018-09-12T08:42:24.523Z,9.63
2018-09-12T08:44:53.683Z,7.93
2018-09-12T08:47:22.820Z,3.43
2018-09-12T08:49:52.370Z,3.23
2018-09-12T08:52:21.735Z,3.77
2018-09-12T08:54:51.114Z,3.10
2018-09-12T08:57:20.322Z,10.83
2018-09-12T08:59:49.506Z,6.13
2018-09-12T09:02:19.001Z,8.27
2018-09-12T09:04:48.754Z,4.07
2018-09-12T09:07:18.208Z,3.53
2018-09-12T09:09:47.438Z,8.30
2018-09-12T09:12:16.542Z,4.87
2018-09-12T09:14:45.738Z,4.73
2018-09-12T09:17:15.400Z,8.50
2018-09-12T09:19:44.619Z,5.40
2018-09-12T09:22:13.756Z,6.40
2018-09-12T09:24:42.921Z,7.80
2018-09-12T09:27:12.211Z,4.00
2018-09-12T09:29:41.383Z,8.20
2018-09-12T09:32:10.735Z,3.37
2018-09-12T09:34:40.058Z,9.70
2018-09-12T09:37:09.238Z,4.67
2018-09-12T09:39:38.305Z,4.73
2018-09-12T09:42:07.806Z,3.90
2018-09-12T09:44:36.843Z,4.03
2018-09-12T09:47:06.163Z,5.53
2018-09-12T09:49:35.418Z,2.53
2018-09-12T09:52:04.370Z,5.63
2018-09-12T09:54:33.619Z,4.50
2018-09-12T09:57:02.900Z,3.23
2018-09-12T09:59:32.110Z,13.60
2018-09-12T10:02:06.463Z,4.83
2018-09-12T10:04:40.712Z,3.37
2018-09-12T10:07:14.760Z,3.30
2018-09-12T10:09:54.390Z,4.63
2018-09-12T10:12:23.676Z,8.57
2018-09-12T10:14:52.781Z,3.30
